Etusivu
METAR-TAF:

METAR-TAF

Lentoasemat :

Rostov-na-Donu, Venäjä

Leveyspiiri: 47-29-38N, Pituuspiiri: 039-55-29E, korkeus merenpinnasta: 65 m

Tämänhetkinen sää

Tämä raportti tehtiin 16 minuuttia sitten, kello 03.00 UTC
Tuuli 2 kn eri suunnista
Lämpötila 11°C
Kosteus 71%
Ilmanpaine 1020 hPa
Näkyvyys 10 km tai enemmän
ei pilviä alle 1500 m:ssä eikä cumulonimbus-pilviä

METAR: URRP 210300Z VRB01MPS CAVOK 11/06 Q1020 R05/CLRD70 NOSIG RMK QFE760/1014

Aika: 06:16 (03:16 UTC)

Sääennuste

Tämä raportti tehtiin 1 tunti ja 17 minuuttia sitten, kello 01.59 UTC
Ennuste voimassa 21. päivästä klo 03 UTC - 22. päivään klo 03 UTC
Tuuli 14 kn idästä puuskistuen 23 kn:hen
Näkyvyys 10 km tai enemmän
Hajanaisia pilviä 2000 ft:n korkeudessa
Ajoittain
21. päivästä klo 03 UTC - 21. päivään klo 12 UTC
Tuuli 10 kn idästä/koillisesta puuskistuen 19 kn:hen

TAF: URRP 210159Z 2103/2203 10007G12MPS 9999 SCT020 TEMPO 2103/2112 07005G10MPS

Säähavainnot ja -ennusteet yli 4000 lentoasemalta (METAR- ja TAF-raportit).

Käytössä olevat sääasemat on merkitty karttaan keltaisilla ja punaisilla pisteillä.

Aseta hiiri pisteen päälle nähdäksesi sääaseman nimen.

Klikkaa sitten nähdäksesi säähavainnot ja -ennusteet.

Kartan vaihtaminen: klikkaa mustalla rastilla varustettuja vihreitä pisteitä, niin voit zoomata sisään; viivalla varustettua vihreää pistettä, niin voit zoomata ulos tai vihreitä nuolia, niin pääset viereisille kartoille.


METAR-TAF: